45.2°F
Current conditions from King Hill
Updated every 5 minutes
 
  Thursday October 30, 2014

Station Historical Data
Daily Summary for May 9, 2012 Units:  Both    English   Metric
« Previous Day
Next Day »
Daily Weekly Monthly Yearly Custom
  High: Low: Average:
Temperature: 67.6 °F /  19.8 °C 52.6 °F /  11.4 °C 59.4 °F /  15.2 °C
Dew Point: 58.9 °F /  14.9 °C 50.3 °F /  10.2 °C 54.9 °F /  12.7 °C
Humidity: 96% 58% 86%
Wind Speed: 5.0mph /  8km/h - 2mph /  3.2km/h
Wind Gust: 15.0mph /  24.1km/h - -
Wind- - SW
Pressure: 29.73 in /  1006.7 hPa 29.52 in /  999.5 hPa -
Precipitation: 0.16 in /  4.1 mm    
Historical Graphs
 
 
Tabular Data for May 9, 2012
Time Temperature Dew Point Pressure Wind Wind Speed Wind Gust Humidity Daily Rainfall
00:05 54.3 °F /  12.4 °C 53.2 °F /  11.8 °C 29.72in /  1006.3hPa SSW 1.0mph /  1.6km/h 6.0mph /  9.7km/h 96% 0.00in /  0mm
00:15 54.4 °F /  12.4 °C 53.3 °F /  11.8 °C 29.72in /  1006.3hPa Calm   6.0mph /  9.7km/h 96% 0.00in /  0mm
00:20 54.4 °F /  12.4 °C 53.3 °F /  11.8 °C 29.72in /  1006.3hPa SSW 3.0mph /  4.8km/h 10.0mph /  16.1km/h 96% 0.00in /  0mm
00:25 54.5 °F /  12.5 °C 53.4 °F /  11.9 °C 29.72in /  1006.3hPa SW 2.0mph /  3.2km/h 10.0mph /  16.1km/h 96% 0.00in /  0mm
00:30 54.5 °F /  12.5 °C 53.4 °F /  11.9 °C 29.72in /  1006.3hPa SSW 2.0mph /  3.2km/h 9.0mph /  14.5km/h 96% 0.00in /  0mm
00:40 54.7 °F /  12.6 °C 53.6 °F /  12 °C 29.73in /  1006.7hPa Calm   8.0mph /  12.9km/h 96% 0.00in /  0mm
00:45 54.7 °F /  12.6 °C 53.6 °F /  12 °C 29.72in /  1006.3hPa Calm   9.0mph /  14.5km/h 96% 0.00in /  0mm
00:55 54.8 °F /  12.7 °C 53.7 °F /  12.1 °C 29.72in /  1006.3hPa SW 2.0mph /  3.2km/h 7.0mph /  11.3km/h 96% 0.00in /  0mm
01:00 54.9 °F /  12.7 °C 53.8 °F /  12.1 °C 29.71in /  1006hPa SSW 2.0mph /  3.2km/h 9.0mph /  14.5km/h 96% 0.00in /  0mm
01:05 54.9 °F /  12.7 °C 53.8 °F /  12.1 °C 29.71in /  1006hPa SSW 2.0mph /  3.2km/h 9.0mph /  14.5km/h 96% 0.00in /  0mm
01:10 54.9 °F /  12.7 °C 53.8 °F /  12.1 °C 29.71in /  1006hPa SW 5.0mph /  8km/h 11.0mph /  17.7km/h 96% 0.00in /  0mm
01:20 54.8 °F /  12.7 °C 53.7 °F /  12.1 °C 29.71in /  1006hPa SW 3.0mph /  4.8km/h 11.0mph /  17.7km/h 96% 0.00in /  0mm
01:25 54.9 °F /  12.7 °C 53.8 °F /  12.1 °C 29.71in /  1006hPa SSW 2.0mph /  3.2km/h 11.0mph /  17.7km/h 96% 0.00in /  0mm
01:35 54.9 °F /  12.7 °C 53.8 °F /  12.1 °C 29.70in /  1005.6hPa SW 2.0mph /  3.2km/h 10.0mph /  16.1km/h 96% 0.00in /  0mm
01:45 55.0 °F /  12.8 °C 53.9 °F /  12.2 °C 29.70in /  1005.6hPa SSW 1.0mph /  1.6km/h 9.0mph /  14.5km/h 96% 0.00in /  0mm
01:50 55.0 °F /  12.8 °C 53.9 °F /  12.2 °C 29.70in /  1005.6hPa SSW 2.0mph /  3.2km/h 15.0mph /  24.1km/h 96% 0.00in /  0mm
01:55 55.0 °F /  12.8 °C 53.9 °F /  12.2 °C 29.70in /  1005.6hPa SSW 2.0mph /  3.2km/h 15.0mph /  24.1km/h 96% 0.00in /  0mm
02:05 55.0 °F /  12.8 °C 53.9 °F /  12.2 °C 29.70in /  1005.6hPa SSW 2.0mph /  3.2km/h 12.0mph /  19.3km/h 96% 0.00in /  0mm
02:10 55.0 °F /  12.8 °C 53.9 °F /  12.2 °C 29.70in /  1005.6hPa SSW 4.0mph /  6.4km/h 12.0mph /  19.3km/h 96% 0.00in /  0mm
02:15 55.0 °F /  12.8 °C 53.9 °F /  12.2 °C 29.70in /  1005.6hPa SW 1.0mph /  1.6km/h 12.0mph /  19.3km/h 96% 0.00in /  0mm
02:20 55.0 °F /  12.8 °C 53.9 °F /  12.2 °C 29.70in /  1005.6hPa SSW 2.0mph /  3.2km/h 8.0mph /  12.9km/h 96% 0.00in /  0mm
02:25 54.9 °F /  12.7 °C 53.8 °F /  12.1 °C 29.70in /  1005.6hPa SSW 2.0mph /  3.2km/h 8.0mph /  12.9km/h 96% 0.00in /  0mm
02:30 55.0 °F /  12.8 °C 53.9 °F /  12.2 °C 29.69in /  1005.3hPa SSW 3.0mph /  4.8km/h 9.0mph /  14.5km/h 96% 0.00in /  0mm
02:35 55.0 °F /  12.8 °C 53.9 °F /  12.2 °C 29.69in /  1005.3hPa SSW 4.0mph /  6.4km/h 9.0mph /  14.5km/h 96% 0.00in /  0mm
02:40 55.0 °F /  12.8 °C 53.9 °F /  12.2 °C 29.69in /  1005.3hPa South 2.0mph /  3.2km/h 9.0mph /  14.5km/h 96% 0.00in /  0mm
02:45 54.9 °F /  12.7 °C 53.8 °F /  12.1 °C 29.69in /  1005.3hPa SSW 3.0mph /  4.8km/h 9.0mph /  14.5km/h 96% 0.00in /  0mm
02:50 54.9 °F /  12.7 °C 53.8 °F /  12.1 °C 29.69in /  1005.3hPa SSW 2.0mph /  3.2km/h 9.0mph /  14.5km/h 96% 0.00in /  0mm
02:55 54.9 °F /  12.7 °C 53.8 °F /  12.1 °C 29.69in /  1005.3hPa Calm   9.0mph /  14.5km/h 96% 0.00in /  0mm
03:00 54.8 °F /  12.7 °C 53.7 °F /  12.1 °C 29.69in /  1005.3hPa Calm   7.0mph /  11.3km/h 96% 0.00in /  0mm
03:05 54.8 °F /  12.7 °C 53.7 °F /  12.1 °C 29.69in /  1005.3hPa SSW 2.0mph /  3.2km/h 8.0mph /  12.9km/h 96% 0.00in /  0mm
03:10 54.7 °F /  12.6 °C 53.6 °F /  12 °C 29.69in /  1005.3hPa SSW 3.0mph /  4.8km/h 10.0mph /  16.1km/h 96% 0.00in /  0mm
03:15 54.7 °F /  12.6 °C 53.6 °F /  12 °C 29.69in /  1005.3hPa SSW 4.0mph /  6.4km/h 10.0mph /  16.1km/h 96% 0.00in /  0mm
03:20 54.8 °F /  12.7 °C 53.7 °F /  12.1 °C 29.69in /  1005.3hPa South 2.0mph /  3.2km/h 9.0mph /  14.5km/h 96% 0.00in /  0mm
03:25 54.8 °F /  12.7 °C 53.7 °F /  12.1 °C 29.69in /  1005.3hPa South 2.0mph /  3.2km/h 8.0mph /  12.9km/h 96% 0.00in /  0mm
03:35 55.1 °F /  12.8 °C 54.0 °F /  12.2 °C 29.68in /  1005hPa SSW 1.0mph /  1.6km/h 8.0mph /  12.9km/h 96% 0.00in /  0mm
03:40 55.1 °F /  12.8 °C 54.0 °F /  12.2 °C 29.68in /  1005hPa SSW 2.0mph /  3.2km/h 8.0mph /  12.9km/h 96% 0.00in /  0mm
03:50 55.1 °F /  12.8 °C 54.0 °F /  12.2 °C 29.69in /  1005.3hPa Calm   9.0mph /  14.5km/h 96% 0.00in /  0mm
03:55 55.2 °F /  12.9 °C 54.1 °F /  12.3 °C 29.69in /  1005.3hPa SW 2.0mph /  3.2km/h 9.0mph /  14.5km/h 96% 0.00in /  0mm
04:00 55.1 °F /  12.8 °C 54.0 °F /  12.2 °C 29.69in /  1005.3hPa Calm   9.0mph /  14.5km/h 96% 0.00in /  0mm
04:05 55.1 °F /  12.8 °C 54.0 °F /  12.2 °C 29.69in /  1005.3hPa Calm   7.0mph /  11.3km/h 96% 0.00in /  0mm
04:10 55.1 °F /  12.8 °C 54.0 °F /  12.2 °C 29.68in /  1005hPa Calm   3.0mph /  4.8km/h 96% 0.00in /  0mm
04:15 55.2 °F /  12.9 °C 54.1 °F /  12.3 °C 29.68in /  1005hPa SSW 2.0mph /  3.2km/h 6.0mph /  9.7km/h 96% 0.00in /  0mm
04:20 55.3 °F /  12.9 °C 54.2 °F /  12.3 °C 29.68in /  1005hPa Calm   6.0mph /  9.7km/h 96% 0.00in /  0mm
04:25 55.3 °F /  12.9 °C 54.2 °F /  12.3 °C 29.68in /  1005hPa Calm   5.0mph /  8km/h 96% 0.00in /  0mm
04:30 55.3 °F /  12.9 °C 54.2 °F /  12.3 °C 29.68in /  1005hPa Calm   5.0mph /  8km/h 96% 0.00in /  0mm
04:35 55.2 °F /  12.9 °C 54.1 °F /  12.3 °C 29.68in /  1005hPa Calm   5.0mph /  8km/h 96% 0.00in /  0mm
04:40 55.2 °F /  12.9 °C 54.1 °F /  12.3 °C 29.68in /  1005hPa Calm   5.0mph /  8km/h 96% 0.00in /  0mm
04:50 55.4 °F /  13 °C 54.3 °F /  12.4 °C 29.68in /  1005hPa SSW 1.0mph /  1.6km/h 10.0mph /  16.1km/h 96% 0.00in /  0mm
04:55 55.5 °F /  13.1 °C 54.4 °F /  12.4 °C 29.68in /  1005hPa SSW 1.0mph /  1.6km/h 6.0mph /  9.7km/h 96% 0.00in /  0mm
05:00 55.5 °F /  13.1 °C 54.4 °F /  12.4 °C 29.68in /  1005hPa Calm   6.0mph /  9.7km/h 96% 0.00in /  0mm
05:05 55.5 °F /  13.1 °C 54.4 °F /  12.4 °C 29.68in /  1005hPa Calm   6.0mph /  9.7km/h 96% 0.00in /  0mm
05:10 55.5 °F /  13.1 °C 54.4 °F /  12.4 °C 29.68in /  1005hPa Calm   5.0mph /  8km/h 96% 0.00in /  0mm
05:15 55.5 °F /  13.1 °C 54.4 °F /  12.4 °C 29.67in /  1004.6hPa SSW 2.0mph /  3.2km/h 7.0mph /  11.3km/h 96% 0.00in /  0mm
05:20 55.5 °F /  13.1 °C 54.4 °F /  12.4 °C 29.68in /  1005hPa Calm   7.0mph /  11.3km/h 96% 0.00in /  0mm
05:25 55.4 °F /  13 °C 54.3 °F /  12.4 °C 29.68in /  1005hPa SSW 2.0mph /  3.2km/h 6.0mph /  9.7km/h 96% 0.00in /  0mm
05:35 55.4 °F /  13 °C 54.3 °F /  12.4 °C 29.67in /  1004.6hPa Calm   7.0mph /  11.3km/h 96% 0.00in /  0mm
05:40 55.4 °F /  13 °C 54.3 °F /  12.4 °C 29.67in /  1004.6hPa Calm   6.0mph /  9.7km/h 96% 0.00in /  0mm
05:45 55.4 °F /  13 °C 54.3 °F /  12.4 °C 29.67in /  1004.6hPa Calm   6.0mph /  9.7km/h 96% 0.00in /  0mm
05:50 55.4 °F /  13 °C 54.3 °F /  12.4 °C 29.68in /  1005hPa SW 1.0mph /  1.6km/h 5.0mph /  8km/h 96% 0.00in /  0mm
05:55 55.4 °F /  13 °C 54.3 °F /  12.4 °C 29.68in /  1005hPa Calm   5.0mph /  8km/h 96% 0.00in /  0mm
06:00 55.3 °F /  12.9 °C 54.2 °F /  12.3 °C 29.68in /  1005hPa Calm   4.0mph /  6.4km/h 96% 0.00in /  0mm
06:05 55.3 °F /  12.9 °C 54.2 °F /  12.3 °C 29.68in /  1005hPa Calm   5.0mph /  8km/h 96% 0.00in /  0mm
06:10 55.3 °F /  12.9 °C 54.2 °F /  12.3 °C 29.67in /  1004.6hPa Calm   5.0mph /  8km/h 96% 0.00in /  0mm
06:15 55.3 °F /  12.9 °C 54.2 °F /  12.3 °C 29.67in /  1004.6hPa Calm   1.0mph /  1.6km/h 96% 0.00in /  0mm
06:20 55.4 °F /  13 °C 54.3 °F /  12.4 °C 29.68in /  1005hPa SW 2.0mph /  3.2km/h 6.0mph /  9.7km/h 96% 0.00in /  0mm
06:30 55.5 °F /  13.1 °C 54.4 °F /  12.4 °C 29.67in /  1004.6hPa Calm   5.0mph /  8km/h 96% 0.00in /  0mm
06:35 55.7 °F /  13.2 °C 54.6 °F /  12.6 °C 29.67in /  1004.6hPa Calm   4.0mph /  6.4km/h 96% 0.00in /  0mm
06:40 55.8 °F /  13.2 °C 54.7 °F /  12.6 °C 29.67in /  1004.6hPa South 2.0mph /  3.2km/h 6.0mph /  9.7km/h 96% 0.00in /  0mm
06:45 55.8 °F /  13.2 °C 54.7 °F /  12.6 °C 29.67in /  1004.6hPa Calm   6.0mph /  9.7km/h 96% 0.00in /  0mm
06:50 55.9 °F /  13.3 °C 54.8 °F /  12.7 °C 29.67in /  1004.6hPa SW 1.0mph /  1.6km/h 6.0mph /  9.7km/h 96% 0.00in /  0mm
06:55 55.9 °F /  13.3 °C 54.8 °F /  12.7 °C 29.67in /  1004.6hPa Calm   6.0mph /  9.7km/h 96% 0.00in /  0mm
07:00 55.9 °F /  13.3 °C 54.8 °F /  12.7 °C 29.67in /  1004.6hPa Calm   6.0mph /  9.7km/h 96% 0.00in /  0mm
07:05 55.9 °F /  13.3 °C 54.8 °F /  12.7 °C 29.67in /  1004.6hPa Calm   7.0mph /  11.3km/h 96% 0.00in /  0mm
07:10 56.0 °F /  13.3 °C 54.9 °F /  12.7 °C 29.67in /  1004.6hPa Calm   7.0mph /  11.3km/h 96% 0.00in /  0mm
07:15 56.0 °F /  13.3 °C 54.9 °F /  12.7 °C 29.67in /  1004.6hPa SSW 5.0mph /  8km/h 8.0mph /  12.9km/h 96% 0.00in /  0mm
07:20 56.1 °F /  13.4 °C 55.0 °F /  12.8 °C 29.67in /  1004.6hPa SSW 3.0mph /  4.8km/h 8.0mph /  12.9km/h 96% 0.00in /  0mm
07:25 56.3 °F /  13.5 °C 55.2 °F /  12.9 °C 29.67in /  1004.6hPa SSW 4.0mph /  6.4km/h 10.0mph /  16.1km/h 96% 0.00in /  0mm
07:35 56.5 °F /  13.6 °C 55.4 °F /  13 °C 29.67in /  1004.6hPa SSW 2.0mph /  3.2km/h 8.0mph /  12.9km/h 96% 0.00in /  0mm
07:45 56.6 °F /  13.7 °C 55.5 °F /  13.1 °C 29.67in /  1004.6hPa Calm   6.0mph /  9.7km/h 96% 0.00in /  0mm
07:50 56.6 °F /  13.7 °C 55.5 °F /  13.1 °C 29.67in /  1004.6hPa Calm   6.0mph /  9.7km/h 96% 0.00in /  0mm
08:00 57.1 °F /  13.9 °C 56.0 °F /  13.3 °C 29.67in /  1004.6hPa SSW 2.0mph /  3.2km/h 6.0mph /  9.7km/h 96% 0.00in /  0mm
08:05 57.1 °F /  13.9 °C 56.0 °F /  13.3 °C 29.67in /  1004.6hPa Calm   6.0mph /  9.7km/h 96% 0.00in /  0mm
08:10 57.1 °F /  13.9 °C 56.0 °F /  13.3 °C 29.68in /  1005hPa Calm   6.0mph /  9.7km/h 96% 0.00in /  0mm
08:15 56.9 °F /  13.8 °C 55.8 °F /  13.2 °C 29.68in /  1005hPa Calm   1.0mph /  1.6km/h 96% 0.00in /  0mm
08:20 56.9 °F /  13.8 °C 55.8 °F /  13.2 °C 29.68in /  1005hPa SSW 2.0mph /  3.2km/h 8.0mph /  12.9km/h 96% 0.00in /  0mm
08:25 57.1 °F /  13.9 °C 56.0 °F /  13.3 °C 29.67in /  1004.6hPa SW 2.0mph /  3.2km/h 9.0mph /  14.5km/h 96% 0.00in /  0mm
08:30 57.5 °F /  14.2 °C 56.4 °F /  13.6 °C 29.67in /  1004.6hPa SW 3.0mph /  4.8km/h 9.0mph /  14.5km/h 96% 0.00in /  0mm
08:35 57.5 °F /  14.2 °C 56.4 °F /  13.6 °C 29.67in /  1004.6hPa SW 2.0mph /  3.2km/h 8.0mph /  12.9km/h 96% 0.00in /  0mm
08:40 57.4 °F /  14.1 °C 56.3 °F /  13.5 °C 29.67in /  1004.6hPa Calm   7.0mph /  11.3km/h 96% 0.00in /  0mm
08:45 57.3 °F /  14.1 °C 56.2 °F /  13.4 °C 29.68in /  1005hPa SW 3.0mph /  4.8km/h 7.0mph /  11.3km/h 96% 0.00in /  0mm
08:50 57.2 °F /  14 °C 56.1 °F /  13.4 °C 29.67in /  1004.6hPa Calm   7.0mph /  11.3km/h 96% 0.00in /  0mm
09:00 57.3 °F /  14.1 °C 56.2 °F /  13.4 °C 29.67in /  1004.6hPa Calm   6.0mph /  9.7km/h 96% 0.00in /  0mm
09:05 57.6 °F /  14.2 °C 56.5 °F /  13.6 °C 29.67in /  1004.6hPa Calm   5.0mph /  8km/h 96% 0.00in /  0mm
09:10 57.8 °F /  14.3 °C 56.7 °F /  13.7 °C 29.67in /  1004.6hPa Calm   5.0mph /  8km/h 96% 0.00in /  0mm
09:15 58.3 °F /  14.6 °C 57.2 °F /  14 °C 29.67in /  1004.6hPa Calm   5.0mph /  8km/h 96% 0.00in /  0mm
09:20 58.3 °F /  14.6 °C 57.2 °F /  14 °C 29.67in /  1004.6hPa Calm   1.0mph /  1.6km/h 96% 0.00in /  0mm
09:25 58.4 °F /  14.7 °C 57.3 °F /  14.1 °C 29.67in /  1004.6hPa Calm   1.0mph /  1.6km/h 96% 0.00in /  0mm
09:30 58.6 °F /  14.8 °C 57.5 °F /  14.2 °C 29.67in /  1004.6hPa Calm   1.0mph /  1.6km/h 96% 0.00in /  0mm
09:35 58.6 °F /  14.8 °C 57.2 °F /  14 °C 29.67in /  1004.6hPa SW 1.0mph /  1.6km/h 6.0mph /  9.7km/h 95% 0.00in /  0mm
09:40 58.8 °F /  14.9 °C 57.4 °F /  14.1 °C 29.67in /  1004.6hPa Calm   6.0mph /  9.7km/h 95% 0.00in /  0mm
09:45 59.0 °F /  15 °C 57.6 °F /  14.2 °C 29.67in /  1004.6hPa SSW 3.0mph /  4.8km/h 7.0mph /  11.3km/h 95% 0.00in /  0mm
09:50 59.8 °F /  15.4 °C 58.4 °F /  14.7 °C 29.66in /  1004.3hPa Calm   7.0mph /  11.3km/h 95% 0.00in /  0mm
09:55 60.3 °F /  15.7 °C 58.3 °F /  14.6 °C 29.67in /  1004.6hPa Calm   2.0mph /  3.2km/h 93% 0.00in /  0mm
10:00 60.4 °F /  15.8 °C 57.5 °F /  14.2 °C 29.67in /  1004.6hPa Calm   6.0mph /  9.7km/h 90% 0.00in /  0mm
10:10 60.8 °F /  16 °C 57.2 °F /  14 °C 29.66in /  1004.3hPa Calm   5.0mph /  8km/h 88% 0.00in /  0mm
10:15 60.8 °F /  16 °C 56.6 °F /  13.7 °C 29.66in /  1004.3hPa Calm   6.0mph /  9.7km/h 86% 0.00in /  0mm
10:20 61.1 °F /  16.2 °C 56.9 °F /  13.8 °C 29.66in /  1004.3hPa Calm   6.0mph /  9.7km/h 86% 0.00in /  0mm
10:25 61.4 °F /  16.3 °C 56.9 °F /  13.8 °C 29.66in /  1004.3hPa SW 4.0mph /  6.4km/h 7.0mph /  11.3km/h 85% 0.00in /  0mm
10:30 61.7 °F /  16.5 °C 57.1 °F /  13.9 °C 29.66in /  1004.3hPa SSW 2.0mph /  3.2km/h 8.0mph /  12.9km/h 85% 0.00in /  0mm
10:35 62.0 °F /  16.7 °C 57.1 °F /  13.9 °C 29.66in /  1004.3hPa Calm   8.0mph /  12.9km/h 84% 0.00in /  0mm
10:45 63.0 °F /  17.2 °C 58.1 °F /  14.5 °C 29.65in /  1003.9hPa Calm   6.0mph /  9.7km/h 84% 0.00in /  0mm
10:50 63.8 °F /  17.7 °C 58.9 °F /  14.9 °C 29.65in /  1003.9hPa Calm   6.0mph /  9.7km/h 84% 0.00in /  0mm
10:55 63.4 °F /  17.4 °C 57.1 °F /  13.9 °C 29.65in /  1003.9hPa Calm   6.0mph /  9.7km/h 80% 0.00in /  0mm
11:00 63.1 °F /  17.3 °C 56.5 °F /  13.6 °C 29.65in /  1003.9hPa SSW 2.0mph /  3.2km/h 7.0mph /  11.3km/h 79% 0.00in /  0mm
11:05 63.0 °F /  17.2 °C 57.1 °F /  13.9 °C 29.65in /  1003.9hPa Calm   8.0mph /  12.9km/h 81% 0.00in /  0mm
11:10 63.5 °F /  17.5 °C 57.9 °F /  14.4 °C 29.65in /  1003.9hPa Calm   8.0mph /  12.9km/h 82% 0.00in /  0mm
11:15 63.8 °F /  17.7 °C 57.9 °F /  14.4 °C 29.64in /  1003.6hPa Calm   8.0mph /  12.9km/h 81% 0.00in /  0mm
11:20 63.6 °F /  17.6 °C 56.6 °F /  13.7 °C 29.64in /  1003.6hPa South 1.0mph /  1.6km/h 8.0mph /  12.9km/h 78% 0.00in /  0mm
11:25 63.2 °F /  17.3 °C 57.3 °F /  14.1 °C 29.64in /  1003.6hPa Calm   9.0mph /  14.5km/h 81% 0.00in /  0mm
11:30 63.1 °F /  17.3 °C 56.8 °F /  13.8 °C 29.64in /  1003.6hPa Calm   9.0mph /  14.5km/h 80% 0.00in /  0mm
11:35 63.1 °F /  17.3 °C 56.8 °F /  13.8 °C 29.64in /  1003.6hPa Calm   1.0mph /  1.6km/h 80% 0.00in /  0mm
11:45 62.5 °F /  16.9 °C 56.3 °F /  13.5 °C 29.64in /  1003.6hPa Calm   7.0mph /  11.3km/h 80% 0.00in /  0mm
11:50 62.8 °F /  17.1 °C 56.5 °F /  13.6 °C 29.63in /  1003.3hPa Calm   7.0mph /  11.3km/h 80% 0.00in /  0mm
11:55 63.3 °F /  17.4 °C 56.7 °F /  13.7 °C 29.63in /  1003.3hPa SSW 2.0mph /  3.2km/h 7.0mph /  11.3km/h 79% 0.00in /  0mm
12:05 64.5 °F /  18.1 °C 56.0 °F /  13.3 °C 29.63in /  1003.3hPa SSW 2.0mph /  3.2km/h 6.0mph /  9.7km/h 74% 0.00in /  0mm
12:10 64.8 °F /  18.2 °C 56.0 °F /  13.3 °C 29.63in /  1003.3hPa WSW 1.0mph /  1.6km/h 7.0mph /  11.3km/h 73% 0.00in /  0mm
12:15 64.8 °F /  18.2 °C 55.6 °F /  13.1 °C 29.63in /  1003.3hPa WSW 1.0mph /  1.6km/h 8.0mph /  12.9km/h 72% 0.00in /  0mm
12:20 64.9 °F /  18.3 °C 56.0 °F /  13.3 °C 29.63in /  1003.3hPa Calm   8.0mph /  12.9km/h 73% 0.00in /  0mm
12:30 65.3 °F /  18.5 °C 55.3 °F /  12.9 °C 29.63in /  1003.3hPa WNW 2.0mph /  3.2km/h 7.0mph /  11.3km/h 70% 0.00in /  0mm
12:35 64.6 °F /  18.1 °C 53.4 °F /  11.9 °C 29.63in /  1003.3hPa WNW 5.0mph /  8km/h 12.0mph /  19.3km/h 67% 0.00in /  0mm
12:40 64.0 °F /  17.8 °C 52.8 °F /  11.6 °C 29.63in /  1003.3hPa WNW 4.0mph /  6.4km/h 12.0mph /  19.3km/h 67% 0.00in /  0mm
12:45 64.0 °F /  17.8 °C 54.8 °F /  12.7 °C 29.63in /  1003.3hPa WNW 1.0mph /  1.6km/h 10.0mph /  16.1km/h 72% 0.00in /  0mm
13:00 65.2 °F /  18.4 °C 54.8 °F /  12.7 °C 29.63in /  1003.3hPa Calm   5.0mph /  8km/h 69% 0.00in /  0mm
13:05 65.5 °F /  18.6 °C 54.3 °F /  12.4 °C 29.63in /  1003.3hPa West 1.0mph /  1.6km/h 5.0mph /  8km/h 67% 0.00in /  0mm
13:10 65.8 °F /  18.8 °C 53.7 °F /  12.1 °C 29.63in /  1003.3hPa West 2.0mph /  3.2km/h 6.0mph /  9.7km/h 65% 0.00in /  0mm
13:15 65.9 °F /  18.8 °C 53.4 °F /  11.9 °C 29.62in /  1002.9hPa WNW 1.0mph /  1.6km/h 6.0mph /  9.7km/h 64% 0.00in /  0mm
13:20 66.2 °F /  19 °C 54.5 °F /  12.5 °C 29.62in /  1002.9hPa Calm   6.0mph /  9.7km/h 66% 0.00in /  0mm
13:25 66.4 °F /  19.1 °C 53.0 °F /  11.7 °C 29.62in /  1002.9hPa WNW 2.0mph /  3.2km/h 8.0mph /  12.9km/h 62% 0.00in /  0mm
13:35 66.9 °F /  19.4 °C 54.3 °F /  12.4 °C 29.62in /  1002.9hPa Calm   9.0mph /  14.5km/h 64% 0.00in /  0mm
13:40 67.2 °F /  19.6 °C 54.2 °F /  12.3 °C 29.62in /  1002.9hPa Calm   7.0mph /  11.3km/h 63% 0.00in /  0mm
13:45 67.3 °F /  19.6 °C 54.3 °F /  12.4 °C 29.62in /  1002.9hPa SSW 1.0mph /  1.6km/h 7.0mph /  11.3km/h 63% 0.00in /  0mm
13:50 67.2 °F /  19.6 °C 53.3 °F /  11.8 °C 29.61in /  1002.6hPa Calm   6.0mph /  9.7km/h 61% 0.00in /  0mm
13:55 67.5 °F /  19.7 °C 54.5 °F /  12.5 °C 29.61in /  1002.6hPa Calm   5.0mph /  8km/h 63% 0.00in /  0mm
14:00 67.6 °F /  19.8 °C 52.8 °F /  11.6 °C 29.62in /  1002.9hPa West 2.0mph /  3.2km/h 8.0mph /  12.9km/h 59% 0.00in /  0mm
14:05 67.3 °F /  19.6 °C 52.0 °F /  11.1 °C 29.62in /  1002.9hPa Calm   8.0mph /  12.9km/h 58% 0.00in /  0mm
14:10 67.4 °F /  19.7 °C 52.6 °F /  11.4 °C 29.61in /  1002.6hPa WNW 2.0mph /  3.2km/h 7.0mph /  11.3km/h 59% 0.00in /  0mm
14:15 67.3 °F /  19.6 °C 52.5 °F /  11.4 °C 29.61in /  1002.6hPa WSW 2.0mph /  3.2km/h 8.0mph /  12.9km/h 59% 0.00in /  0mm
14:20 67.4 °F /  19.7 °C 53.0 °F /  11.7 °C 29.61in /  1002.6hPa Calm   8.0mph /  12.9km/h 60% 0.00in /  0mm
14:25 67.5 °F /  19.7 °C 52.2 °F /  11.2 °C 29.60in /  1002.3hPa SW 1.0mph /  1.6km/h 7.0mph /  11.3km/h 58% 0.00in /  0mm
14:30 67.2 °F /  19.6 °C 52.4 °F /  11.3 °C 29.60in /  1002.3hPa Calm   4.0mph /  6.4km/h 59% 0.00in /  0mm
14:35 67.2 °F /  19.6 °C 53.3 °F /  11.8 °C 29.60in /  1002.3hPa Calm   5.0mph /  8km/h 61% 0.00in /  0mm
14:40 66.9 °F /  19.4 °C 52.1 °F /  11.2 °C 29.60in /  1002.3hPa Calm   7.0mph /  11.3km/h 59% 0.00in /  0mm
14:45 66.8 °F /  19.3 °C 52.9 °F /  11.6 °C 29.60in /  1002.3hPa Calm   7.0mph /  11.3km/h 61% 0.00in /  0mm
14:50 66.9 °F /  19.4 °C 54.3 °F /  12.4 °C 29.59in /  1001.9hPa Calm   3.0mph /  4.8km/h 64% 0.00in /  0mm
14:55 66.8 °F /  19.3 °C 54.7 °F /  12.6 °C 29.59in /  1001.9hPa Calm   3.0mph /  4.8km/h 65% 0.00in /  0mm
15:00 66.8 °F /  19.3 °C 54.2 °F /  12.3 °C 29.59in /  1001.9hPa Calm   3.0mph /  4.8km/h 64% 0.00in /  0mm
15:05 67.0 °F /  19.4 °C 55.3 °F /  12.9 °C 29.58in /  1001.6hPa Calm     66% 0.00in /  0mm
15:10 67.2 °F /  19.6 °C 54.6 °F /  12.6 °C 29.58in /  1001.6hPa SW 1.0mph /  1.6km/h 5.0mph /  8km/h 64% 0.00in /  0mm
15:15 67.1 °F /  19.5 °C 54.5 °F /  12.5 °C 29.58in /  1001.6hPa Calm   5.0mph /  8km/h 64% 0.00in /  0mm
15:20 67.3 °F /  19.6 °C 55.1 °F /  12.8 °C 29.58in /  1001.6hPa Calm   5.0mph /  8km/h 65% 0.00in /  0mm
15:25 67.4 °F /  19.7 °C 54.8 °F /  12.7 °C 29.58in /  1001.6hPa Calm   5.0mph /  8km/h 64% 0.00in /  0mm
15:30 67.5 °F /  19.7 °C 54.5 °F /  12.5 °C 29.58in /  1001.6hPa Calm   3.0mph /  4.8km/h 63% 0.00in /  0mm
15:35 67.4 °F /  19.7 °C 53.9 °F /  12.2 °C 29.58in /  1001.6hPa Calm   3.0mph /  4.8km/h 62% 0.00in /  0mm
15:40 67.1 °F /  19.5 °C 54.1 °F /  12.3 °C 29.58in /  1001.6hPa Calm   1.0mph /  1.6km/h 63% 0.00in /  0mm
15:45 67.1 °F /  19.5 °C 53.7 °F /  12.1 °C 29.57in /  1001.2hPa Calm   1.0mph /  1.6km/h 62% 0.00in /  0mm
15:50 67.0 °F /  19.4 °C 53.6 °F /  12 °C 29.57in /  1001.2hPa SSW 1.0mph /  1.6km/h 4.0mph /  6.4km/h 62% 0.00in /  0mm
15:55 67.1 °F /  19.5 °C 54.1 °F /  12.3 °C 29.57in /  1001.2hPa Calm   4.0mph /  6.4km/h 63% 0.00in /  0mm
16:00 67.0 °F /  19.4 °C 53.6 °F /  12 °C 29.57in /  1001.2hPa Calm   4.0mph /  6.4km/h 62% 0.00in /  0mm
16:05 67.0 °F /  19.4 °C 54.0 °F /  12.2 °C 29.57in /  1001.2hPa SW 1.0mph /  1.6km/h 5.0mph /  8km/h 63% 0.00in /  0mm
16:10 66.8 °F /  19.3 °C 54.2 °F /  12.3 °C 29.56in /  1000.9hPa Calm   5.0mph /  8km/h 64% 0.00in /  0mm
16:15 66.6 °F /  19.2 °C 54.5 °F /  12.5 °C 29.56in /  1000.9hPa Calm   4.0mph /  6.4km/h 65% 0.00in /  0mm
16:20 66.4 °F /  19.1 °C 54.3 °F /  12.4 °C 29.56in /  1000.9hPa Calm   4.0mph /  6.4km/h 65% 0.00in /  0mm
16:25 66.3 °F /  19.1 °C 54.2 °F /  12.3 °C 29.56in /  1000.9hPa Calm   3.0mph /  4.8km/h 65% 0.00in /  0mm
16:30 66.1 °F /  18.9 °C 54.0 °F /  12.2 °C 29.56in /  1000.9hPa Calm   7.0mph /  11.3km/h 65% 0.00in /  0mm
16:35 65.8 °F /  18.8 °C 53.7 °F /  12.1 °C 29.56in /  1000.9hPa Calm   7.0mph /  11.3km/h 65% 0.00in /  0mm
16:45 65.6 °F /  18.7 °C 55.2 °F /  12.9 °C 29.56in /  1000.9hPa Calm   5.0mph /  8km/h 69% 0.00in /  0mm
16:55 65.6 °F /  18.7 °C 55.6 °F /  13.1 °C 29.56in /  1000.9hPa Calm   4.0mph /  6.4km/h 70% 0.00in /  0mm
17:00 65.1 °F /  18.4 °C 55.5 °F /  13.1 °C 29.56in /  1000.9hPa Calm   6.0mph /  9.7km/h 71% 0.00in /  0mm
17:05 64.9 °F /  18.3 °C 56.0 °F /  13.3 °C 29.55in /  1000.6hPa Calm   6.0mph /  9.7km/h 73% 0.00in /  0mm
17:10 64.7 °F /  18.2 °C 56.6 °F /  13.7 °C 29.55in /  1000.6hPa Calm   3.0mph /  4.8km/h 75% 0.00in /  0mm
17:15 64.6 °F /  18.1 °C 56.5 °F /  13.6 °C 29.55in /  1000.6hPa Calm     75% 0.00in /  0mm
17:20 64.5 °F /  18.1 °C 56.4 °F /  13.6 °C 29.55in /  1000.6hPa Calm     75% 0.00in /  0mm
17:25 64.5 °F /  18.1 °C 56.4 °F /  13.6 °C 29.54in /  1000.2hPa Calm     75% 0.00in /  0mm
17:30 64.4 °F /  18 °C 56.3 °F /  13.5 °C 29.55in /  1000.6hPa Calm     75% 0.00in /  0mm
17:35 64.4 °F /  18 °C 56.3 °F /  13.5 °C 29.54in /  1000.2hPa Calm   1.0mph /  1.6km/h 75% 0.00in /  0mm
17:40 64.3 °F /  17.9 °C 56.2 °F /  13.4 °C 29.54in /  1000.2hPa Calm   1.0mph /  1.6km/h 75% 0.00in /  0mm
17:45 64.1 °F /  17.8 °C 56.0 °F /  13.3 °C 29.54in /  1000.2hPa Calm   1.0mph /  1.6km/h 75% 0.00in /  0mm
17:50 63.9 °F /  17.7 °C 56.2 °F /  13.4 °C 29.54in /  1000.2hPa Calm   1.0mph /  1.6km/h 76% 0.00in /  0mm
17:55 63.7 °F /  17.6 °C 56.0 °F /  13.3 °C 29.53in /  999.9hPa Calm     76% 0.00in /  0mm
18:00 63.5 °F /  17.5 °C 56.2 °F /  13.4 °C 29.53in /  999.9hPa Calm     77% 0.00in /  0mm
18:05 63.1 °F /  17.3 °C 56.5 °F /  13.6 °C 29.54in /  1000.2hPa Calm     79% 0.01in /  0.3mm
18:10 62.8 °F /  17.1 °C 56.9 °F /  13.8 °C 29.54in /  1000.2hPa Calm     81% 0.01in /  0.3mm
18:15 62.3 °F /  16.8 °C 57.1 °F /  13.9 °C 29.54in /  1000.2hPa Calm     83% 0.02in /  0.5mm
18:20 61.8 °F /  16.6 °C 56.6 °F /  13.7 °C 29.54in /  1000.2hPa Calm     83% 0.02in /  0.5mm
18:25 61.3 °F /  16.3 °C 56.8 °F /  13.8 °C 29.54in /  1000.2hPa Calm     85% 0.02in /  0.5mm
18:30 60.8 °F /  16 °C 56.3 °F /  13.5 °C 29.54in /  1000.2hPa Calm   1.0mph /  1.6km/h 85% 0.04in /  1mm
18:35 60.3 °F /  15.7 °C 56.1 °F /  13.4 °C 29.54in /  1000.2hPa Calm   1.0mph /  1.6km/h 86% 0.04in /  1mm
18:45 59.8 °F /  15.4 °C 55.9 °F /  13.3 °C 29.54in /  1000.2hPa Calm   3.0mph /  4.8km/h 87% 0.05in /  1.3mm
18:50 59.5 °F /  15.3 °C 55.9 °F /  13.3 °C 29.54in /  1000.2hPa Calm   3.0mph /  4.8km/h 88% 0.06in /  1.5mm
18:55 59.4 °F /  15.2 °C 55.8 °F /  13.2 °C 29.54in /  1000.2hPa Calm   1.0mph /  1.6km/h 88% 0.07in /  1.8mm
18:59 59.3 °F /  15.2 °C 56.1 °F /  13.4 °C 29.54in /  1000.2hPa Calm   1.0mph /  1.6km/h 89% 0.07in /  1.8mm
19:05 59.0 °F /  15 °C 55.8 °F /  13.2 °C 29.55in /  1000.6hPa Calm   2.0mph /  3.2km/h 89% 0.07in /  1.8mm
19:10 59.0 °F /  15 °C 56.1 °F /  13.4 °C 29.55in /  1000.6hPa Calm   2.0mph /  3.2km/h 90% 0.08in /  2mm
19:15 59.0 °F /  15 °C 56.1 °F /  13.4 °C 29.54in /  1000.2hPa Calm   2.0mph /  3.2km/h 90% 0.08in /  2mm
19:20 59.0 °F /  15 °C 56.1 °F /  13.4 °C 29.54in /  1000.2hPa Calm   1.0mph /  1.6km/h 90% 0.09in /  2.3mm
19:25 58.9 °F /  14.9 °C 56.0 °F /  13.3 °C 29.53in /  999.9hPa Calm     90% 0.10in /  2.5mm
19:30 58.7 °F /  14.8 °C 55.8 °F /  13.2 °C 29.54in /  1000.2hPa Calm   3.0mph /  4.8km/h 90% 0.10in /  2.5mm
19:35 58.7 °F /  14.8 °C 56.1 °F /  13.4 °C 29.54in /  1000.2hPa SSW 1.0mph /  1.6km/h 5.0mph /  8km/h 91% 0.10in /  2.5mm
19:40 58.7 °F /  14.8 °C 56.1 °F /  13.4 °C 29.54in /  1000.2hPa West 2.0mph /  3.2km/h 7.0mph /  11.3km/h 91% 0.10in /  2.5mm
19:45 58.6 °F /  14.8 °C 56.0 °F /  13.3 °C 29.54in /  1000.2hPa Calm   7.0mph /  11.3km/h 91% 0.11in /  2.8mm
19:50 58.5 °F /  14.7 °C 55.9 °F /  13.3 °C 29.54in /  1000.2hPa WSW 1.0mph /  1.6km/h 7.0mph /  11.3km/h 91% 0.12in /  3mm
19:55 58.4 °F /  14.7 °C 55.8 °F /  13.2 °C 29.54in /  1000.2hPa Calm   5.0mph /  8km/h 91% 0.12in /  3mm
20:00 58.3 °F /  14.6 °C 55.7 °F /  13.2 °C 29.54in /  1000.2hPa Calm   1.0mph /  1.6km/h 91% 0.12in /  3mm
20:05 58.2 °F /  14.6 °C 55.9 °F /  13.3 °C 29.55in /  1000.6hPa Calm   1.0mph /  1.6km/h 92% 0.13in /  3.3mm
20:10 58.1 °F /  14.5 °C 55.8 °F /  13.2 °C 29.55in /  1000.6hPa Calm   4.0mph /  6.4km/h 92% 0.14in /  3.6mm
20:15 58.1 °F /  14.5 °C 55.8 °F /  13.2 °C 29.55in /  1000.6hPa SW 2.0mph /  3.2km/h 9.0mph /  14.5km/h 92% 0.14in /  3.6mm
20:20 58.0 °F /  14.4 °C 55.7 °F /  13.2 °C 29.55in /  1000.6hPa SW 2.0mph /  3.2km/h 9.0mph /  14.5km/h 92% 0.14in /  3.6mm
20:25 58.0 °F /  14.4 °C 55.7 °F /  13.2 °C 29.55in /  1000.6hPa Calm   7.0mph /  11.3km/h 92% 0.14in /  3.6mm
20:30 58.0 °F /  14.4 °C 55.7 °F /  13.2 °C 29.55in /  1000.6hPa Calm   4.0mph /  6.4km/h 92% 0.14in /  3.6mm
20:35 57.9 °F /  14.4 °C 55.9 °F /  13.3 °C 29.54in /  1000.2hPa Calm   1.0mph /  1.6km/h 93% 0.14in /  3.6mm
20:40 57.9 °F /  14.4 °C 55.9 °F /  13.3 °C 29.54in /  1000.2hPa Calm   1.0mph /  1.6km/h 93% 0.15in /  3.8mm
20:50 57.8 °F /  14.3 °C 55.8 °F /  13.2 °C 29.55in /  1000.6hPa Calm     93% 0.15in /  3.8mm
20:54 57.7 °F /  14.3 °C 55.7 °F /  13.2 °C 29.55in /  1000.6hPa Calm   1.0mph /  1.6km/h 93% 0.15in /  3.8mm
21:00 57.7 °F /  14.3 °C 55.7 °F /  13.2 °C 29.55in /  1000.6hPa SSW 1.0mph /  1.6km/h 5.0mph /  8km/h 93% 0.15in /  3.8mm
21:05 57.7 °F /  14.3 °C 55.7 °F /  13.2 °C 29.55in /  1000.6hPa Calm   7.0mph /  11.3km/h 93% 0.15in /  3.8mm
21:10 57.5 °F /  14.2 °C 55.5 °F /  13.1 °C 29.55in /  1000.6hPa South 1.0mph /  1.6km/h 7.0mph /  11.3km/h 93% 0.15in /  3.8mm
21:15 57.4 °F /  14.1 °C 55.4 °F /  13 °C 29.55in /  1000.6hPa SSW 1.0mph /  1.6km/h 7.0mph /  11.3km/h 93% 0.15in /  3.8mm
21:20 57.2 °F /  14 °C 55.2 °F /  12.9 °C 29.55in /  1000.6hPa Calm   7.0mph /  11.3km/h 93% 0.15in /  3.8mm
21:25 57.0 °F /  13.9 °C 55.0 °F /  12.8 °C 29.55in /  1000.6hPa Calm   6.0mph /  9.7km/h 93% 0.15in /  3.8mm
21:30 56.9 °F /  13.8 °C 54.9 °F /  12.7 °C 29.55in /  1000.6hPa Calm   5.0mph /  8km/h 93% 0.15in /  3.8mm
21:35 56.7 °F /  13.7 °C 54.7 °F /  12.6 °C 29.55in /  1000.6hPa Calm   1.0mph /  1.6km/h 93% 0.15in /  3.8mm
21:40 56.6 °F /  13.7 °C 54.9 °F /  12.7 °C 29.55in /  1000.6hPa Calm     94% 0.15in /  3.8mm
21:45 56.5 °F /  13.6 °C 54.8 °F /  12.7 °C 29.55in /  1000.6hPa Calm   3.0mph /  4.8km/h 94% 0.16in /  4.1mm
21:49 56.4 °F /  13.6 °C 54.7 °F /  12.6 °C 29.55in /  1000.6hPa Calm   3.0mph /  4.8km/h 94% 0.16in /  4.1mm
21:55 56.2 °F /  13.4 °C 54.5 °F /  12.5 °C 29.55in /  1000.6hPa Calm   2.0mph /  3.2km/h 94% 0.16in /  4.1mm
22:00 56.1 °F /  13.4 °C 54.4 °F /  12.4 °C 29.55in /  1000.6hPa South 2.0mph /  3.2km/h 6.0mph /  9.7km/h 94% 0.16in /  4.1mm
22:05 55.9 °F /  13.3 °C 54.2 °F /  12.3 °C 29.55in /  1000.6hPa SSW 3.0mph /  4.8km/h 10.0mph /  16.1km/h 94% 0.16in /  4.1mm
22:10 55.9 °F /  13.3 °C 54.2 °F /  12.3 °C 29.55in /  1000.6hPa Calm   10.0mph /  16.1km/h 94% 0.16in /  4.1mm
22:15 55.7 °F /  13.2 °C 54.0 °F /  12.2 °C 29.55in /  1000.6hPa Calm   7.0mph /  11.3km/h 94% 0.16in /  4.1mm
22:20 55.4 °F /  13 °C 53.7 °F /  12.1 °C 29.55in /  1000.6hPa SSW 1.0mph /  1.6km/h 7.0mph /  11.3km/h 94% 0.16in /  4.1mm
22:25 55.4 °F /  13 °C 53.7 °F /  12.1 °C 29.55in /  1000.6hPa SSW 2.0mph /  3.2km/h 7.0mph /  11.3km/h 94% 0.16in /  4.1mm
22:30 55.4 °F /  13 °C 53.7 °F /  12.1 °C 29.55in /  1000.6hPa Calm   7.0mph /  11.3km/h 94% 0.16in /  4.1mm
22:35 55.3 °F /  12.9 °C 53.6 °F /  12 °C 29.54in /  1000.2hPa Calm   7.0mph /  11.3km/h 94% 0.16in /  4.1mm
22:40 55.2 °F /  12.9 °C 53.5 °F /  11.9 °C 29.55in /  1000.6hPa Calm   7.0mph /  11.3km/h 94% 0.16in /  4.1mm
22:45 55.1 °F /  12.8 °C 53.4 °F /  11.9 °C 29.54in /  1000.2hPa Calm   7.0mph /  11.3km/h 94% 0.16in /  4.1mm
22:55 54.8 °F /  12.7 °C 53.1 °F /  11.7 °C 29.54in /  1000.2hPa Calm     94% 0.16in /  4.1mm
23:00 54.6 °F /  12.6 °C 52.6 °F /  11.4 °C 29.54in /  1000.2hPa Calm     93% 0.16in /  4.1mm
23:05 54.4 °F /  12.4 °C 52.4 °F /  11.3 °C 29.54in /  1000.2hPa Calm     93% 0.16in /  4.1mm
23:10 54.2 °F /  12.3 °C 52.5 °F /  11.4 °C 29.54in /  1000.2hPa Calm     94% 0.16in /  4.1mm
23:15 53.9 °F /  12.2 °C 51.9 °F /  11.1 °C 29.54in /  1000.2hPa Calm     93% 0.16in /  4.1mm
23:20 53.5 °F /  11.9 °C 51.5 °F /  10.8 °C 29.54in /  1000.2hPa Calm     93% 0.16in /  4.1mm
23:25 53.2 °F /  11.8 °C 51.2 °F /  10.7 °C 29.54in /  1000.2hPa Calm     93% 0.16in /  4.1mm
23:30 53.0 °F /  11.7 °C 51.0 °F /  10.6 °C 29.53in /  999.9hPa SW 1.0mph /  1.6km/h 4.0mph /  6.4km/h 93% 0.16in /  4.1mm
23:35 52.9 °F /  11.6 °C 50.9 °F /  10.5 °C 29.54in /  1000.2hPa Calm   4.0mph /  6.4km/h 93% 0.16in /  4.1mm
23:39 52.8 °F /  11.6 °C 50.8 °F /  10.4 °C 29.53in /  999.9hPa SW 1.0mph /  1.6km/h 4.0mph /  6.4km/h 93% 0.16in /  4.1mm
23:45 52.8 °F /  11.6 °C 50.8 °F /  10.4 °C 29.53in /  999.9hPa Calm   4.0mph /  6.4km/h 93% 0.16in /  4.1mm
23:54 52.6 °F /  11.4 °C 50.3 °F /  10.2 °C 29.52in /  999.5hPa Calm   8.0mph /  12.9km/h 92% 0.16in /  4.1mm
Westford Weather
Compliments of Weather Underground

 
 
Current Radar Loop:

Copyright © WestfordWeather.net 2007-2014. All rights reserved.